sensor_id;sensor_type;location;lat;lon;timestamp;pressure;altitude;pressure_sealevel;temperature;humidity
61292;BME280;47165;42.664;23.368;2023-04-28T00:01:14;95240.81;;;8.34;42.91
61292;BME280;47165;42.664;23.368;2023-04-28T00:03:40;95239.38;;;8.08;43.45
61292;BME280;47165;42.664;23.368;2023-04-28T00:06:05;95241.84;;;7.91;43.51
61292;BME280;47165;42.664;23.368;2023-04-28T00:08:31;95231.75;;;8.03;43.56
61292;BME280;47165;42.664;23.368;2023-04-28T00:10:56;95232.28;;;7.71;44.04
61292;BME280;47165;42.664;23.368;2023-04-28T00:13:22;95252.50;;;7.64;44.43
61292;BME280;47165;42.664;23.368;2023-04-28T00:15:50;95237.84;;;7.83;44.17
61292;BME280;47165;42.664;23.368;2023-04-28T00:18:21;95237.97;;;7.80;43.81
61292;BME280;47165;42.664;23.368;2023-04-28T00:20:46;95240.19;;;7.90;44.13
61292;BME280;47165;42.664;23.368;2023-04-28T00:23:12;95236.19;;;8.01;43.56
61292;BME280;47165;42.664;23.368;2023-04-28T00:25:37;95246.06;;;7.93;43.59
61292;BME280;47165;42.664;23.368;2023-04-28T00:28:03;95239.56;;;8.03;43.65
61292;BME280;47165;42.664;23.368;2023-04-28T00:30:29;95241.84;;;8.11;43.44
61292;BME280;47165;42.664;23.368;2023-04-28T00:32:55;95246.00;;;7.95;43.89
61292;BME280;47165;42.664;23.368;2023-04-28T00:35:20;95246.47;;;7.63;44.62
61292;BME280;47165;42.664;23.368;2023-04-28T00:37:46;95242.50;;;7.55;44.56
61292;BME280;47165;42.664;23.368;2023-04-28T00:40:11;95245.75;;;7.60;44.51
61292;BME280;47165;42.664;23.368;2023-04-28T00:42:37;95252.44;;;7.65;44.30
61292;BME280;47165;42.664;23.368;2023-04-28T00:45:03;95255.63;;;7.72;44.54
61292;BME280;47165;42.664;23.368;2023-04-28T00:47:34;95248.03;;;7.68;44.37
61292;BME280;47165;42.664;23.368;2023-04-28T00:50:00;95250.59;;;7.47;45.08
61292;BME280;47165;42.664;23.368;2023-04-28T00:52:27;95253.72;;;7.55;44.97
61292;BME280;47165;42.664;23.368;2023-04-28T00:54:53;95252.16;;;7.51;44.83
61292;BME280;47165;42.664;23.368;2023-04-28T00:57:19;95263.00;;;7.40;45.28
61292;BME280;47165;42.664;23.368;2023-04-28T00:59:44;95253.91;;;7.30;45.30
61292;BME280;47165;42.664;23.368;2023-04-28T01:02:10;95262.81;;;7.23;45.53
61292;BME280;47165;42.664;23.368;2023-04-28T01:04:42;95254.25;;;7.21;45.65
61292;BME280;47165;42.664;23.368;2023-04-28T01:07:08;95252.56;;;7.20;45.88
61292;BME280;47165;42.664;23.368;2023-04-28T01:09:33;95259.13;;;7.29;45.73
61292;BME280;47165;42.664;23.368;2023-04-28T01:11:59;95260.59;;;7.14;45.93
61292;BME280;47165;42.664;23.368;2023-04-28T01:14:24;95254.56;;;6.68;47.02
61292;BME280;47165;42.664;23.368;2023-04-28T01:16:50;95260.53;;;6.93;46.53
61292;BME280;47165;42.664;23.368;2023-04-28T01:19:22;95262.81;;;7.01;46.46
61292;BME280;47165;42.664;23.368;2023-04-28T01:21:48;95274.72;;;7.07;46.17
61292;BME280;47165;42.664;23.368;2023-04-28T01:24:14;95266.81;;;7.10;46.22
61292;BME280;47165;42.664;23.368;2023-04-28T01:26:39;95273.69;;;7.11;46.02
61292;BME280;47165;42.664;23.368;2023-04-28T01:29:05;95270.28;;;6.87;46.52
61292;BME280;47165;42.664;23.368;2023-04-28T01:31:30;95272.50;;;6.97;46.37
61292;BME280;47165;42.664;23.368;2023-04-28T01:33:56;95269.22;;;6.92;46.57
61292;BME280;47165;42.664;23.368;2023-04-28T01:36:22;95268.38;;;7.14;46.09
61292;BME280;47165;42.664;23.368;2023-04-28T01:38:48;95272.34;;;7.00;46.56
61292;BME280;47165;42.664;23.368;2023-04-28T01:41:14;95265.94;;;7.09;45.73
61292;BME280;47165;42.664;23.368;2023-04-28T01:43:39;95258.59;;;6.98;45.90
61292;BME280;47165;42.664;23.368;2023-04-28T01:46:05;95255.16;;;6.98;45.94
61292;BME280;47165;42.664;23.368;2023-04-28T01:48:30;95257.63;;;6.79;46.35
61292;BME280;47165;42.664;23.368;2023-04-28T01:50:56;95272.75;;;6.44;47.50
61292;BME280;47165;42.664;23.368;2023-04-28T01:53:21;95266.44;;;6.75;46.56
61292;BME280;47165;42.664;23.368;2023-04-28T01:55:47;95259.28;;;6.80;46.43
61292;BME280;47165;42.664;23.368;2023-04-28T01:58:12;95268.09;;;6.76;46.40
61292;BME280;47165;42.664;23.368;2023-04-28T02:00:38;95269.81;;;6.77;46.27
61292;BME280;47165;42.664;23.368;2023-04-28T02:03:03;95268.47;;;6.67;46.31
61292;BME280;47165;42.664;23.368;2023-04-28T02:05:29;95275.69;;;6.58;46.56
61292;BME280;47165;42.664;23.368;2023-04-28T02:07:54;95271.72;;;6.72;46.21
61292;BME280;47165;42.664;23.368;2023-04-28T02:10:20;95281.31;;;6.46;46.75
61292;BME280;47165;42.664;23.368;2023-04-28T02:12:45;95276.47;;;6.60;46.49
61292;BME280;47165;42.664;23.368;2023-04-28T02:15:11;95277.88;;;6.69;46.20
61292;BME280;47165;42.664;23.368;2023-04-28T02:17:36;95271.94;;;6.65;46.13
61292;BME280;47165;42.664;23.368;2023-04-28T02:20:02;95279.28;;;6.54;46.59
61292;BME280;47165;42.664;23.368;2023-04-28T02:22:27;95286.28;;;6.52;46.80
61292;BME280;47165;42.664;23.368;2023-04-28T02:24:53;95283.09;;;6.68;46.34
61292;BME280;47165;42.664;23.368;2023-04-28T02:27:19;95282.53;;;6.59;46.39
61292;BME280;47165;42.664;23.368;2023-04-28T02:29:45;95289.53;;;6.57;46.55
61292;BME280;47165;42.664;23.368;2023-04-28T02:32:10;95291.69;;;6.46;47.04
61292;BME280;47165;42.664;23.368;2023-04-28T02:34:36;95287.50;;;6.65;46.62
61292;BME280;47165;42.664;23.368;2023-04-28T02:37:01;95282.91;;;6.50;46.70
61292;BME280;47165;42.664;23.368;2023-04-28T02:39:27;95288.41;;;6.41;47.06
61292;BME280;47165;42.664;23.368;2023-04-28T02:41:54;95292.13;;;6.34;47.15
61292;BME280;47165;42.664;23.368;2023-04-28T02:44:20;95301.06;;;6.50;46.74
61292;BME280;47165;42.664;23.368;2023-04-28T02:46:45;95298.34;;;6.53;46.77
61292;BME280;47165;42.664;23.368;2023-04-28T02:49:11;95296.22;;;6.39;46.84
61292;BME280;47165;42.664;23.368;2023-04-28T02:51:37;95303.81;;;6.69;46.38
61292;BME280;47165;42.664;23.368;2023-04-28T02:54:02;95303.69;;;6.72;46.24
61292;BME280;47165;42.664;23.368;2023-04-28T02:56:28;95304.19;;;6.82;46.08
61292;BME280;47165;42.664;23.368;2023-04-28T02:58:57;95302.00;;;6.71;46.18
61292;BME280;47165;42.664;23.368;2023-04-28T03:01:22;95300.72;;;6.83;45.97
61292;BME280;47165;42.664;23.368;2023-04-28T03:03:48;95300.47;;;6.65;46.41
61292;BME280;47165;42.664;23.368;2023-04-28T03:06:13;95306.72;;;6.60;46.83
61292;BME280;47165;42.664;23.368;2023-04-28T03:08:39;95314.28;;;6.66;46.53
61292;BME280;47165;42.664;23.368;2023-04-28T03:11:04;95310.91;;;6.64;46.46
61292;BME280;47165;42.664;23.368;2023-04-28T03:13:30;95308.81;;;6.74;45.97
61292;BME280;47165;42.664;23.368;2023-04-28T03:15:55;95313.84;;;6.78;46.25
61292;BME280;47165;42.664;23.368;2023-04-28T03:18:21;95305.50;;;6.70;46.08
61292;BME280;47165;42.664;23.368;2023-04-28T03:20:49;95307.81;;;6.78;45.91
61292;BME280;47165;42.664;23.368;2023-04-28T03:23:15;95313.34;;;6.69;46.30
61292;BME280;47165;42.664;23.368;2023-04-28T03:25:40;95328.56;;;6.78;46.10
61292;BME280;47165;42.664;23.368;2023-04-28T03:28:06;95329.59;;;6.74;46.08
61292;BME280;47165;42.664;23.368;2023-04-28T03:30:32;95333.66;;;6.57;46.45
61292;BME280;47165;42.664;23.368;2023-04-28T03:32:57;95343.31;;;6.77;46.15
61292;BME280;47165;42.664;23.368;2023-04-28T03:35:23;95336.72;;;6.69;46.15
61292;BME280;47165;42.664;23.368;2023-04-28T03:37:48;95336.84;;;6.64;46.16
61292;BME280;47165;42.664;23.368;2023-04-28T03:40:14;95348.06;;;6.41;46.75
61292;BME280;47165;42.664;23.368;2023-04-28T03:42:40;95350.34;;;6.50;46.56
61292;BME280;47165;42.664;23.368;2023-04-28T03:45:06;95355.97;;;6.38;46.74
61292;BME280;47165;42.664;23.368;2023-04-28T03:47:32;95357.69;;;6.37;46.54
61292;BME280;47165;42.664;23.368;2023-04-28T03:49:57;95351.72;;;6.35;46.58
61292;BME280;47165;42.664;23.368;2023-04-28T03:52:23;95360.44;;;6.33;46.35
61292;BME280;47165;42.664;23.368;2023-04-28T03:54:49;95365.63;;;6.33;46.58
61292;BME280;47165;42.664;23.368;2023-04-28T03:57:14;95371.94;;;6.51;46.09
61292;BME280;47165;42.664;23.368;2023-04-28T03:59:40;95371.94;;;6.26;46.36
61292;BME280;47165;42.664;23.368;2023-04-28T04:02:05;95370.22;;;6.24;46.58
61292;BME280;47165;42.664;23.368;2023-04-28T04:04:31;95383.06;;;6.02;47.37
61292;BME280;47165;42.664;23.368;2023-04-28T04:06:56;95386.50;;;6.30;47.06
61292;BME280;47165;42.664;23.368;2023-04-28T04:09:22;95401.56;;;6.18;46.71
61292;BME280;47165;42.664;23.368;2023-04-28T04:11:47;95387.13;;;6.11;47.02
61292;BME280;47165;42.664;23.368;2023-04-28T04:14:13;95385.63;;;6.29;46.38
61292;BME280;47165;42.664;23.368;2023-04-28T04:16:38;95393.56;;;6.50;46.12
61292;BME280;47165;42.664;23.368;2023-04-28T04:19:04;95390.69;;;6.34;45.82
61292;BME280;47165;42.664;23.368;2023-04-28T04:21:29;95393.28;;;6.34;45.67
61292;BME280;47165;42.664;23.368;2023-04-28T04:23:55;95400.09;;;6.36;45.94
61292;BME280;47165;42.664;23.368;2023-04-28T04:26:21;95399.31;;;6.34;45.88
61292;BME280;47165;42.664;23.368;2023-04-28T04:28:47;95399.16;;;6.12;46.37
61292;BME280;47165;42.664;23.368;2023-04-28T04:31:12;95409.13;;;6.24;46.24
61292;BME280;47165;42.664;23.368;2023-04-28T04:33:38;95408.28;;;6.49;45.88
61292;BME280;47165;42.664;23.368;2023-04-28T04:36:03;95401.69;;;6.65;45.57
61292;BME280;47165;42.664;23.368;2023-04-28T04:38:29;95401.06;;;6.59;45.66
61292;BME280;47165;42.664;23.368;2023-04-28T04:40:55;95405.38;;;6.33;45.94
61292;BME280;47165;42.664;23.368;2023-04-28T04:43:21;95403.69;;;6.32;45.76
61292;BME280;47165;42.664;23.368;2023-04-28T04:45:46;95405.63;;;6.52;45.45
61292;BME280;47165;42.664;23.368;2023-04-28T04:48:12;95407.66;;;6.68;45.06
61292;BME280;47165;42.664;23.368;2023-04-28T04:50:37;95415.13;;;6.77;44.88
61292;BME280;47165;42.664;23.368;2023-04-28T04:53:03;95416.72;;;6.81;44.63
61292;BME280;47165;42.664;23.368;2023-04-28T04:55:29;95417.16;;;6.69;44.66
61292;BME280;47165;42.664;23.368;2023-04-28T04:57:54;95429.41;;;6.89;44.58
61292;BME280;47165;42.664;23.368;2023-04-28T05:00:20;95424.56;;;7.03;44.30
61292;BME280;47165;42.664;23.368;2023-04-28T05:02:46;95424.13;;;6.92;45.13
61292;BME280;47165;42.664;23.368;2023-04-28T05:05:11;95432.88;;;7.13;44.52
61292;BME280;47165;42.664;23.368;2023-04-28T05:07:36;95428.84;;;7.28;44.77
61292;BME280;47165;42.664;23.368;2023-04-28T05:10:02;95425.09;;;7.36;44.16
61292;BME280;47165;42.664;23.368;2023-04-28T05:12:28;95440.44;;;7.42;43.97
61292;BME280;47165;42.664;23.368;2023-04-28T05:14:54;95435.28;;;7.41;43.87
61292;BME280;47165;42.664;23.368;2023-04-28T05:17:19;95432.88;;;7.13;44.33
61292;BME280;47165;42.664;23.368;2023-04-28T05:19:45;95441.84;;;7.04;44.55
61292;BME280;47165;42.664;23.368;2023-04-28T05:22:10;95433.34;;;6.99;44.26
61292;BME280;47165;42.664;23.368;2023-04-28T05:24:36;95431.47;;;7.04;44.28
61292;BME280;47165;42.664;23.368;2023-04-28T05:27:01;95422.38;;;7.16;43.93
61292;BME280;47165;42.664;23.368;2023-04-28T05:29:27;95436.13;;;7.41;43.60
61292;BME280;47165;42.664;23.368;2023-04-28T05:31:52;95435.28;;;7.41;44.16
61292;BME280;47165;42.664;23.368;2023-04-28T05:34:18;95429.50;;;7.56;43.74
61292;BME280;47165;42.664;23.368;2023-04-28T05:36:43;95427.13;;;7.28;43.94
61292;BME280;47165;42.664;23.368;2023-04-28T05:39:09;95428.88;;;7.04;44.73
61292;BME280;47165;42.664;23.368;2023-04-28T05:41:35;95437.84;;;6.95;44.94
61292;BME280;47165;42.664;23.368;2023-04-28T05:44:01;95437.41;;;7.08;44.94
61292;BME280;47165;42.664;23.368;2023-04-28T05:46:26;95425.47;;;7.25;44.77
61292;BME280;47165;42.664;23.368;2023-04-28T05:48:52;95442.56;;;7.31;44.86
61292;BME280;47165;42.664;23.368;2023-04-28T05:51:17;95436.81;;;7.23;45.18
61292;BME280;47165;42.664;23.368;2023-04-28T05:53:43;95430.47;;;7.54;44.56
61292;BME280;47165;42.664;23.368;2023-04-28T05:56:08;95434.56;;;7.61;44.66
61292;BME280;47165;42.664;23.368;2023-04-28T05:58:34;95434.78;;;7.55;43.95
61292;BME280;47165;42.664;23.368;2023-04-28T06:00:59;95436.59;;;7.53;44.24
61292;BME280;47165;42.664;23.368;2023-04-28T06:03:26;95440.94;;;7.74;43.94
61292;BME280;47165;42.664;23.368;2023-04-28T06:05:52;95453.75;;;7.79;43.80
61292;BME280;47165;42.664;23.368;2023-04-28T06:08:18;95439.09;;;7.54;43.77
61292;BME280;47165;42.664;23.368;2023-04-28T06:10:43;95444.66;;;7.45;43.72
61292;BME280;47165;42.664;23.368;2023-04-28T06:13:09;95432.03;;;7.81;43.78
61292;BME280;47165;42.664;23.368;2023-04-28T06:15:34;95448.50;;;7.80;43.06
61292;BME280;47165;42.664;23.368;2023-04-28T06:18:00;95427.16;;;7.72;42.97
61292;BME280;47165;42.664;23.368;2023-04-28T06:20:25;95431.88;;;7.84;43.04
61292;BME280;47165;42.664;23.368;2023-04-28T06:22:51;95435.50;;;7.80;43.43
61292;BME280;47165;42.664;23.368;2023-04-28T06:25:16;95426.44;;;7.91;43.13
61292;BME280;47165;42.664;23.368;2023-04-28T06:27:42;95430.03;;;8.10;42.87
61292;BME280;47165;42.664;23.368;2023-04-28T06:30:08;95441.31;;;8.09;42.64
61292;BME280;47165;42.664;23.368;2023-04-28T06:32:33;95433.00;;;8.21;42.32
61292;BME280;47165;42.664;23.368;2023-04-28T06:34:59;95420.47;;;8.31;42.44
61292;BME280;47165;42.664;23.368;2023-04-28T06:37:25;95421.00;;;8.39;42.19
61292;BME280;47165;42.664;23.368;2023-04-28T06:39:51;95423.84;;;8.55;42.27
61292;BME280;47165;42.664;23.368;2023-04-28T06:42:16;95425.16;;;8.65;42.11
61292;BME280;47165;42.664;23.368;2023-04-28T06:44:43;95434.91;;;8.60;41.42
61292;BME280;47165;42.664;23.368;2023-04-28T06:47:09;95423.13;;;8.52;41.60
61292;BME280;47165;42.664;23.368;2023-04-28T06:49:35;95423.41;;;8.66;41.00
61292;BME280;47165;42.664;23.368;2023-04-28T06:52:01;95426.97;;;8.63;41.03
61292;BME280;47165;42.664;23.368;2023-04-28T06:54:26;95431.19;;;8.66;41.40
61292;BME280;47165;42.664;23.368;2023-04-28T06:56:51;95415.13;;;8.77;40.95
61292;BME280;47165;42.664;23.368;2023-04-28T06:59:17;95427.53;;;8.91;41.06
61292;BME280;47165;42.664;23.368;2023-04-28T07:01:42;95424.75;;;8.75;41.09
61292;BME280;47165;42.664;23.368;2023-04-28T07:04:08;95422.91;;;8.97;40.73
61292;BME280;47165;42.664;23.368;2023-04-28T07:06:33;95419.91;;;9.06;40.70
61292;BME280;47165;42.664;23.368;2023-04-28T07:08:59;95428.28;;;9.13;39.64
61292;BME280;47165;42.664;23.368;2023-04-28T07:11:24;95425.91;;;9.09;40.08
61292;BME280;47165;42.664;23.368;2023-04-28T07:13:49;95428.03;;;9.19;39.77
61292;BME280;47165;42.664;23.368;2023-04-28T07:16:18;95424.66;;;8.97;39.22
61292;BME280;47165;42.664;23.368;2023-04-28T07:18:45;95420.81;;;9.24;39.71
61292;BME280;47165;42.664;23.368;2023-04-28T07:21:11;95418.03;;;9.48;39.93
61292;BME280;47165;42.664;23.368;2023-04-28T07:23:36;95423.19;;;9.50;39.58
61292;BME280;47165;42.664;23.368;2023-04-28T07:26:03;95409.22;;;9.51;38.35
61292;BME280;47165;42.664;23.368;2023-04-28T07:28:29;95419.94;;;9.44;38.53
61292;BME280;47165;42.664;23.368;2023-04-28T07:30:54;95412.97;;;9.64;38.60
61292;BME280;47165;42.664;23.368;2023-04-28T07:33:20;95400.34;;;9.55;38.11
61292;BME280;47165;42.664;23.368;2023-04-28T07:35:45;95407.25;;;9.56;38.03
61292;BME280;47165;42.664;23.368;2023-04-28T07:38:12;95409.34;;;9.29;38.89
61292;BME280;47165;42.664;23.368;2023-04-28T07:40:37;95412.88;;;9.09;38.85
61292;BME280;47165;42.664;23.368;2023-04-28T07:43:03;95411.88;;;9.49;38.76
61292;BME280;47165;42.664;23.368;2023-04-28T07:45:28;95413.44;;;9.72;38.94
61292;BME280;47165;42.664;23.368;2023-04-28T07:47:54;95416.16;;;9.88;38.59
61292;BME280;47165;42.664;23.368;2023-04-28T07:50:20;95410.00;;;10.08;38.15
61292;BME280;47165;42.664;23.368;2023-04-28T07:52:45;95405.53;;;9.93;37.50
61292;BME280;47165;42.664;23.368;2023-04-28T07:55:11;95411.16;;;9.83;37.97
61292;BME280;47165;42.664;23.368;2023-04-28T07:57:36;95414.13;;;9.95;37.36
61292;BME280;47165;42.664;23.368;2023-04-28T08:00:02;95403.00;;;10.08;36.65
61292;BME280;47165;42.664;23.368;2023-04-28T08:02:30;95404.94;;;10.22;36.82
61292;BME280;47165;42.664;23.368;2023-04-28T08:04:55;95406.25;;;10.14;36.32
61292;BME280;47165;42.664;23.368;2023-04-28T08:07:21;95405.84;;;10.40;35.77
61292;BME280;47165;42.664;23.368;2023-04-28T08:09:46;95408.38;;;10.42;37.25
61292;BME280;47165;42.664;23.368;2023-04-28T08:12:13;95403.91;;;10.61;37.36
61292;BME280;47165;42.664;23.368;2023-04-28T08:14:38;95407.28;;;10.63;35.48
61292;BME280;47165;42.664;23.368;2023-04-28T08:17:04;95398.59;;;10.80;36.23
61292;BME280;47165;42.664;23.368;2023-04-28T08:19:29;95403.94;;;10.95;37.10
61292;BME280;47165;42.664;23.368;2023-04-28T08:21:55;95403.88;;;10.96;36.30
61292;BME280;47165;42.664;23.368;2023-04-28T08:24:20;95410.31;;;11.06;36.22
61292;BME280;47165;42.664;23.368;2023-04-28T08:26:46;95406.78;;;11.07;36.70
61292;BME280;47165;42.664;23.368;2023-04-28T08:29:11;95394.31;;;11.13;35.04
61292;BME280;47165;42.664;23.368;2023-04-28T08:31:37;95392.75;;;11.26;36.20
61292;BME280;47165;42.664;23.368;2023-04-28T08:34:02;95390.66;;;11.48;35.75
61292;BME280;47165;42.664;23.368;2023-04-28T08:36:28;95383.66;;;11.65;35.18
61292;BME280;47165;42.664;23.368;2023-04-28T08:38:57;95384.66;;;11.78;35.55
61292;BME280;47165;42.664;23.368;2023-04-28T08:41:31;95384.84;;;11.91;36.17
61292;BME280;47165;42.664;23.368;2023-04-28T08:43:57;95380.13;;;11.98;34.96
61292;BME280;47165;42.664;23.368;2023-04-28T08:46:24;95383.16;;;12.06;34.49
61292;BME280;47165;42.664;23.368;2023-04-28T08:48:55;95378.13;;;12.17;34.59
61292;BME280;47165;42.664;23.368;2023-04-28T08:51:33;95370.16;;;12.35;35.07
61292;BME280;47165;42.664;23.368;2023-04-28T08:54:02;95381.97;;;12.42;35.13
61292;BME280;47165;42.664;23.368;2023-04-28T08:56:31;95376.41;;;12.32;33.25
61292;BME280;47165;42.664;23.368;2023-04-28T08:59:01;95374.81;;;12.30;33.31
61292;BME280;47165;42.664;23.368;2023-04-28T09:01:28;95369.06;;;12.39;34.15
61292;BME280;47165;42.664;23.368;2023-04-28T09:03:53;95371.16;;;12.62;34.29
61292;BME280;47165;42.664;23.368;2023-04-28T09:06:19;95368.06;;;12.56;33.33
61292;BME280;47165;42.664;23.368;2023-04-28T09:08:45;95374.84;;;12.44;32.71
61292;BME280;47165;42.664;23.368;2023-04-28T09:11:11;95361.63;;;12.61;33.66
61292;BME280;47165;42.664;23.368;2023-04-28T09:13:38;95369.00;;;12.69;33.41
61292;BME280;47165;42.664;23.368;2023-04-28T09:16:04;95361.44;;;12.34;32.32
61292;BME280;47165;42.664;23.368;2023-04-28T09:18:30;95355.69;;;12.43;32.61
61292;BME280;47165;42.664;23.368;2023-04-28T09:21:09;95348.53;;;12.61;32.75
61292;BME280;47165;42.664;23.368;2023-04-28T09:23:46;95348.16;;;12.67;33.47
61292;BME280;47165;42.664;23.368;2023-04-28T09:26:13;95348.78;;;12.71;33.55
61292;BME280;47165;42.664;23.368;2023-04-28T09:28:39;95347.16;;;12.84;33.17
61292;BME280;47165;42.664;23.368;2023-04-28T09:31:04;95352.31;;;12.86;32.42
61292;BME280;47165;42.664;23.368;2023-04-28T09:33:30;95348.28;;;12.95;32.40
61292;BME280;47165;42.664;23.368;2023-04-28T09:35:55;95348.72;;;12.73;32.64
61292;BME280;47165;42.664;23.368;2023-04-28T09:38:22;95340.50;;;12.93;32.32
61292;BME280;47165;42.664;23.368;2023-04-28T09:40:57;95338.06;;;13.04;31.95
61292;BME280;47165;42.664;23.368;2023-04-28T09:43:25;95327.00;;;13.14;32.23
61292;BME280;47165;42.664;23.368;2023-04-28T09:45:52;95327.00;;;13.28;32.73
61292;BME280;47165;42.664;23.368;2023-04-28T09:48:26;95322.22;;;13.20;31.88
61292;BME280;47165;42.664;23.368;2023-04-28T09:50:52;95319.34;;;13.39;32.33
61292;BME280;47165;42.664;23.368;2023-04-28T09:53:22;95319.78;;;13.46;31.57
61292;BME280;47165;42.664;23.368;2023-04-28T09:55:49;95309.91;;;13.64;32.37
61292;BME280;47165;42.664;23.368;2023-04-28T09:58:20;95315.28;;;13.48;31.75
61292;BME280;47165;42.664;23.368;2023-04-28T10:00:57;95313.63;;;13.74;32.29
61292;BME280;47165;42.664;23.368;2023-04-28T10:03:24;95298.63;;;13.76;31.76
61292;BME280;47165;42.664;23.368;2023-04-28T10:05:51;95299.09;;;13.96;30.85
61292;BME280;47165;42.664;23.368;2023-04-28T10:08:21;95296.06;;;14.02;30.08
61292;BME280;47165;42.664;23.368;2023-04-28T10:10:50;95293.78;;;14.10;29.95
61292;BME280;47165;42.664;23.368;2023-04-28T10:13:22;95289.63;;;13.93;28.73
61292;BME280;47165;42.664;23.368;2023-04-28T10:15:48;95283.81;;;14.15;28.41
61292;BME280;47165;42.664;23.368;2023-04-28T10:18:14;95278.84;;;14.11;28.90
61292;BME280;47165;42.664;23.368;2023-04-28T10:20:43;95285.81;;;14.24;30.02
61292;BME280;47165;42.664;23.368;2023-04-28T10:25:57;95275.69;;;14.58;28.45
61292;BME280;47165;42.664;23.368;2023-04-28T10:28:24;95289.88;;;14.81;29.59
61292;BME280;47165;42.664;23.368;2023-04-28T10:31:12;95279.66;;;14.64;29.11
61292;BME280;47165;42.664;23.368;2023-04-28T10:33:39;95276.81;;;14.54;28.19
61292;BME280;47165;42.664;23.368;2023-04-28T10:36:06;95279.25;;;14.57;28.35
61292;BME280;47165;42.664;23.368;2023-04-28T10:38:32;95276.94;;;14.78;29.25
61292;BME280;47165;42.664;23.368;2023-04-28T10:40:59;95261.97;;;15.04;28.70
61292;BME280;47165;42.664;23.368;2023-04-28T10:56:15;95251.34;;;15.43;27.37
61292;BME280;47165;42.664;23.368;2023-04-28T10:58:44;95248.75;;;15.67;27.40
61292;BME280;47165;42.664;23.368;2023-04-28T11:14:29;95231.56;;;16.79;24.92
61292;BME280;47165;42.664;23.368;2023-04-28T11:16:57;95229.06;;;17.00;24.75
61292;BME280;47165;42.664;23.368;2023-04-28T11:19:35;95226.00;;;17.49;24.61
61292;BME280;47165;42.664;23.368;2023-04-28T11:22:04;95208.00;;;17.87;24.92
61292;BME280;47165;42.664;23.368;2023-04-28T11:24:34;95212.75;;;18.25;24.27
61292;BME280;47165;42.664;23.368;2023-04-28T11:26:59;95220.13;;;18.10;23.01
61292;BME280;47165;42.664;23.368;2023-04-28T11:29:37;95214.09;;;18.41;23.87
61292;BME280;47165;42.664;23.368;2023-04-28T11:32:08;95211.88;;;18.67;23.43
61292;BME280;47165;42.664;23.368;2023-04-28T11:34:34;95207.13;;;18.92;23.01
61292;BME280;47165;42.664;23.368;2023-04-28T11:37:00;95208.66;;;18.94;22.23
61292;BME280;47165;42.664;23.368;2023-04-28T11:39:31;95191.38;;;19.30;21.82
61292;BME280;47165;42.664;23.368;2023-04-28T11:41:58;95201.19;;;18.78;20.78
61292;BME280;47165;42.664;23.368;2023-04-28T11:44:26;95200.16;;;17.53;21.89
61292;BME280;47165;42.664;23.368;2023-04-28T11:46:54;95192.44;;;18.05;22.20
61292;BME280;47165;42.664;23.368;2023-04-28T11:49:42;95199.16;;;18.82;22.30
61292;BME280;47165;42.664;23.368;2023-04-28T11:52:09;95191.72;;;19.06;22.26
61292;BME280;47165;42.664;23.368;2023-04-28T11:54:35;95175.28;;;19.13;20.54
61292;BME280;47165;42.664;23.368;2023-04-28T11:57:01;95185.38;;;19.48;21.10
61292;BME280;47165;42.664;23.368;2023-04-28T11:59:35;95185.41;;;20.26;21.03
61292;BME280;47165;42.664;23.368;2023-04-28T12:02:03;95173.13;;;21.19;18.83
61292;BME280;47165;42.664;23.368;2023-04-28T12:04:34;95164.28;;;22.62;17.32
61292;BME280;47165;42.664;23.368;2023-04-28T12:07:10;95168.78;;;24.14;16.73
61292;BME280;47165;42.664;23.368;2023-04-28T12:09:38;95166.63;;;25.54;15.09
61292;BME280;47165;42.664;23.368;2023-04-28T12:12:16;95170.94;;;25.86;14.64
61292;BME280;47165;42.664;23.368;2023-04-28T12:19:56;95144.22;;;27.88;13.80
61292;BME280;47165;42.664;23.368;2023-04-28T12:22:23;95139.31;;;28.98;12.61
61292;BME280;47165;42.664;23.368;2023-04-28T12:25:07;95137.09;;;29.08;12.35
61292;BME280;47165;42.664;23.368;2023-04-28T12:27:35;95135.50;;;28.79;13.49
61292;BME280;47165;42.664;23.368;2023-04-28T12:30:03;95130.09;;;29.55;13.30
61292;BME280;47165;42.664;23.368;2023-04-28T12:32:40;95125.75;;;30.36;12.60
61292;BME280;47165;42.664;23.368;2023-04-28T12:35:07;95140.63;;;29.43;12.63
61292;BME280;47165;42.664;23.368;2023-04-28T12:37:33;95131.75;;;29.49;12.90
61292;BME280;47165;42.664;23.368;2023-04-28T12:39:58;95131.06;;;28.99;12.84
61292;BME280;47165;42.664;23.368;2023-04-28T12:42:24;95136.38;;;28.08;14.04
61292;BME280;47165;42.664;23.368;2023-04-28T12:44:50;95129.31;;;28.28;13.81
61292;BME280;47165;42.664;23.368;2023-04-28T12:47:15;95129.00;;;28.66;14.27
61292;BME280;47165;42.664;23.368;2023-04-28T12:49:43;95123.31;;;29.11;13.69
61292;BME280;47165;42.664;23.368;2023-04-28T12:52:09;95119.38;;;28.79;12.91
61292;BME280;47165;42.664;23.368;2023-04-28T12:54:35;95117.53;;;28.51;13.61
61292;BME280;47165;42.664;23.368;2023-04-28T12:57:01;95113.44;;;28.55;13.89
61292;BME280;47165;42.664;23.368;2023-04-28T12:59:27;95112.25;;;28.64;13.58
61292;BME280;47165;42.664;23.368;2023-04-28T13:01:53;95117.03;;;28.41;13.95
61292;BME280;47165;42.664;23.368;2023-04-28T13:04:19;95102.22;;;28.80;13.75
61292;BME280;47165;42.664;23.368;2023-04-28T13:06:45;95095.72;;;29.51;13.63
61292;BME280;47165;42.664;23.368;2023-04-28T13:09:11;95087.97;;;29.82;13.24
61292;BME280;47165;42.664;23.368;2023-04-28T13:11:38;95102.47;;;30.08;13.39
61292;BME280;47165;42.664;23.368;2023-04-28T13:14:03;95097.91;;;30.02;12.59
61292;BME280;47165;42.664;23.368;2023-04-28T13:16:29;95081.19;;;29.32;11.98
61292;BME280;47165;42.664;23.368;2023-04-28T13:18:57;95095.34;;;28.14;13.59
61292;BME280;47165;42.664;23.368;2023-04-28T13:21:23;95080.00;;;28.08;13.15
61292;BME280;47165;42.664;23.368;2023-04-28T13:23:50;95084.91;;;28.04;13.63
61292;BME280;47165;42.664;23.368;2023-04-28T13:26:16;95087.66;;;27.32;13.99